Asbury, West Virginia
Current Conditions -  °F | °C
As of 12:15 PM on Wednesday 26 Nov 2014 (Local Time) from KLWB Reporting Station
Light Snow Light Snow  
Wind Chill: 35°   Ceiling: 300
Heat Index: 35°   Visibility: 1.5mi
Dew Point: 34°   Wind: 0mph
Humidity: 95%   Direction: NA
Pressure: 29.95"   Gusts: NA
Location:  37.82°N, 80.56°W
Report Text: KLWB 261715Z AUTO 00000KT 1 1/2SM -SN OVC003 02/01 A2995 RMK AO2 T00170010
Loading
Personal Weather Stations






























Interactive Weather Map New forecast layout! Learn more

10-Day Weather Forecast

Advertisements
Track Severe Weather on mobile